sensor_id;sensor_type;location;lat;lon;timestamp;P1;durP1;ratioP1;P2;durP2;ratioP2
6561;SDS011;3314;50.890;4.722;2023-08-12T00:00:11;12.0;;;3.2;;
6561;SDS011;3314;50.890;4.722;2023-08-12T00:01:59;16.3;;;4.2;;
6561;SDS011;3314;50.890;4.722;2023-08-12T00:03:59;10.7;;;3.1;;
6561;SDS011;3314;50.890;4.722;2023-08-12T00:06:00;10.1;;;3.6;;
6561;SDS011;3314;50.890;4.722;2023-08-12T00:08:00;9.4;;;3.4;;
6561;SDS011;3314;50.890;4.722;2023-08-12T00:10:00;13.2;;;3.3;;
6561;SDS011;3314;50.890;4.722;2023-08-12T00:12:00;14.9;;;3.4;;
6561;SDS011;3314;50.890;4.722;2023-08-12T00:14:00;10.6;;;3.3;;
6561;SDS011;3314;50.890;4.722;2023-08-12T00:15:59;10.8;;;3.5;;
6561;SDS011;3314;50.890;4.722;2023-08-12T00:17:59;9.3;;;2.8;;
6561;SDS011;3314;50.890;4.722;2023-08-12T00:19:59;11.7;;;3.9;;
6561;SDS011;3314;50.890;4.722;2023-08-12T00:21:58;9.1;;;2.8;;
6561;SDS011;3314;50.890;4.722;2023-08-12T00:23:58;9.9;;;2.9;;
6561;SDS011;3314;50.890;4.722;2023-08-12T00:25:58;9.3;;;3.1;;
6561;SDS011;3314;50.890;4.722;2023-08-12T00:27:57;12.3;;;3.6;;
6561;SDS011;3314;50.890;4.722;2023-08-12T00:29:57;10.0;;;3.0;;
6561;SDS011;3314;50.890;4.722;2023-08-12T00:31:57;10.0;;;3.4;;
6561;SDS011;3314;50.890;4.722;2023-08-12T00:33:56;12.4;;;2.6;;
6561;SDS011;3314;50.890;4.722;2023-08-12T00:35:56;13.6;;;3.5;;
6561;SDS011;3314;50.890;4.722;2023-08-12T00:37:56;12.0;;;3.3;;
6561;SDS011;3314;50.890;4.722;2023-08-12T00:39:56;12.1;;;3.4;;
6561;SDS011;3314;50.890;4.722;2023-08-12T00:41:56;12.1;;;3.0;;
6561;SDS011;3314;50.890;4.722;2023-08-12T00:43:56;13.3;;;3.5;;
6561;SDS011;3314;50.890;4.722;2023-08-12T00:45:56;10.9;;;3.0;;
6561;SDS011;3314;50.890;4.722;2023-08-12T00:47:56;8.1;;;2.6;;
6561;SDS011;3314;50.890;4.722;2023-08-12T00:49:57;12.3;;;3.5;;
6561;SDS011;3314;50.890;4.722;2023-08-12T00:51:57;11.0;;;2.7;;
6561;SDS011;3314;50.890;4.722;2023-08-12T00:53:57;8.0;;;2.9;;
6561;SDS011;3314;50.890;4.722;2023-08-12T00:55:57;10.5;;;3.1;;
6561;SDS011;3314;50.890;4.722;2023-08-12T00:57:56;9.1;;;2.5;;
6561;SDS011;3314;50.890;4.722;2023-08-12T00:59:56;11.6;;;2.8;;
6561;SDS011;3314;50.890;4.722;2023-08-12T01:01:56;10.2;;;3.2;;
6561;SDS011;3314;50.890;4.722;2023-08-12T01:03:55;11.3;;;3.4;;
6561;SDS011;3314;50.890;4.722;2023-08-12T01:05:56;10.9;;;3.1;;
6561;SDS011;3314;50.890;4.722;2023-08-12T01:07:56;9.6;;;2.8;;
6561;SDS011;3314;50.890;4.722;2023-08-12T01:09:55;8.7;;;2.7;;
6561;SDS011;3314;50.890;4.722;2023-08-12T01:11:57;12.2;;;3.2;;
6561;SDS011;3314;50.890;4.722;2023-08-12T01:14:00;9.6;;;2.8;;
6561;SDS011;3314;50.890;4.722;2023-08-12T01:16:03;9.8;;;2.6;;
6561;SDS011;3314;50.890;4.722;2023-08-12T01:17:54;10.9;;;2.9;;
6561;SDS011;3314;50.890;4.722;2023-08-12T01:19:55;9.8;;;2.7;;
6561;SDS011;3314;50.890;4.722;2023-08-12T01:21:55;12.6;;;3.4;;
6561;SDS011;3314;50.890;4.722;2023-08-12T01:23:58;10.1;;;2.4;;
6561;SDS011;3314;50.890;4.722;2023-08-12T01:25:58;12.0;;;3.2;;
6561;SDS011;3314;50.890;4.722;2023-08-12T01:27:58;10.5;;;2.7;;
6561;SDS011;3314;50.890;4.722;2023-08-12T01:29:57;12.9;;;3.7;;
6561;SDS011;3314;50.890;4.722;2023-08-12T01:32:00;9.2;;;2.9;;
6561;SDS011;3314;50.890;4.722;2023-08-12T01:34:04;12.1;;;2.9;;
6561;SDS011;3314;50.890;4.722;2023-08-12T01:35:56;11.5;;;3.4;;
6561;SDS011;3314;50.890;4.722;2023-08-12T01:37:59;12.7;;;3.3;;
6561;SDS011;3314;50.890;4.722;2023-08-12T01:40:00;10.4;;;3.0;;
6561;SDS011;3314;50.890;4.722;2023-08-12T01:42:00;9.6;;;2.6;;
6561;SDS011;3314;50.890;4.722;2023-08-12T01:44:01;8.6;;;2.9;;
6561;SDS011;3314;50.890;4.722;2023-08-12T01:46:01;11.7;;;2.9;;
6561;SDS011;3314;50.890;4.722;2023-08-12T01:48:00;15.3;;;3.2;;
6561;SDS011;3314;50.890;4.722;2023-08-12T01:50:00;15.3;;;3.7;;
6561;SDS011;3314;50.890;4.722;2023-08-12T01:52:00;11.5;;;3.2;;
6561;SDS011;3314;50.890;4.722;2023-08-12T01:53:59;13.5;;;2.8;;
6561;SDS011;3314;50.890;4.722;2023-08-12T01:55:59;11.8;;;3.1;;
6561;SDS011;3314;50.890;4.722;2023-08-12T01:57:59;10.3;;;2.9;;
6561;SDS011;3314;50.890;4.722;2023-08-12T01:59:59;12.6;;;3.3;;
6561;SDS011;3314;50.890;4.722;2023-08-12T02:01:59;11.3;;;3.6;;
6561;SDS011;3314;50.890;4.722;2023-08-12T02:03:58;11.4;;;3.1;;
6561;SDS011;3314;50.890;4.722;2023-08-12T02:05:58;11.2;;;2.7;;
6561;SDS011;3314;50.890;4.722;2023-08-12T02:07:57;10.0;;;3.6;;
6561;SDS011;3314;50.890;4.722;2023-08-12T02:09:57;10.7;;;3.0;;
6561;SDS011;3314;50.890;4.722;2023-08-12T02:11:57;12.2;;;2.8;;
6561;SDS011;3314;50.890;4.722;2023-08-12T02:13:56;11.0;;;3.1;;
6561;SDS011;3314;50.890;4.722;2023-08-12T02:15:56;11.4;;;3.4;;
6561;SDS011;3314;50.890;4.722;2023-08-12T02:17:55;12.0;;;3.8;;
6561;SDS011;3314;50.890;4.722;2023-08-12T02:19:55;13.7;;;4.0;;
6561;SDS011;3314;50.890;4.722;2023-08-12T02:21:55;12.9;;;3.4;;
6561;SDS011;3314;50.890;4.722;2023-08-12T02:23:54;10.2;;;3.1;;
6561;SDS011;3314;50.890;4.722;2023-08-12T02:25:54;12.4;;;3.7;;
6561;SDS011;3314;50.890;4.722;2023-08-12T02:27:54;9.8;;;3.2;;
6561;SDS011;3314;50.890;4.722;2023-08-12T02:29:53;14.6;;;3.5;;
6561;SDS011;3314;50.890;4.722;2023-08-12T02:31:53;11.9;;;3.4;;
6561;SDS011;3314;50.890;4.722;2023-08-12T02:33:53;13.3;;;3.2;;
6561;SDS011;3314;50.890;4.722;2023-08-12T02:35:53;14.3;;;3.4;;
6561;SDS011;3314;50.890;4.722;2023-08-12T02:37:52;11.5;;;3.7;;
6561;SDS011;3314;50.890;4.722;2023-08-12T02:39:52;11.1;;;3.1;;
6561;SDS011;3314;50.890;4.722;2023-08-12T02:41:51;13.2;;;3.3;;
6561;SDS011;3314;50.890;4.722;2023-08-12T02:43:51;13.8;;;3.4;;
6561;SDS011;3314;50.890;4.722;2023-08-12T02:45:51;10.7;;;3.0;;
6561;SDS011;3314;50.890;4.722;2023-08-12T02:47:50;14.5;;;3.4;;
6561;SDS011;3314;50.890;4.722;2023-08-12T02:49:50;11.3;;;3.3;;
6561;SDS011;3314;50.890;4.722;2023-08-12T02:51:50;10.7;;;3.1;;
6561;SDS011;3314;50.890;4.722;2023-08-12T02:53:49;11.8;;;3.2;;
6561;SDS011;3314;50.890;4.722;2023-08-12T02:55:49;9.9;;;2.7;;
6561;SDS011;3314;50.890;4.722;2023-08-12T02:57:49;12.5;;;3.4;;
6561;SDS011;3314;50.890;4.722;2023-08-12T02:59:49;8.2;;;3.0;;
6561;SDS011;3314;50.890;4.722;2023-08-12T03:01:49;10.5;;;3.2;;
6561;SDS011;3314;50.890;4.722;2023-08-12T03:03:49;10.1;;;3.6;;
6561;SDS011;3314;50.890;4.722;2023-08-12T03:05:49;12.2;;;2.9;;
6561;SDS011;3314;50.890;4.722;2023-08-12T03:07:49;10.0;;;3.2;;
6561;SDS011;3314;50.890;4.722;2023-08-12T03:09:49;13.2;;;4.1;;
6561;SDS011;3314;50.890;4.722;2023-08-12T03:11:49;12.3;;;3.6;;
6561;SDS011;3314;50.890;4.722;2023-08-12T03:13:49;11.9;;;4.1;;
6561;SDS011;3314;50.890;4.722;2023-08-12T03:15:48;11.7;;;3.6;;
6561;SDS011;3314;50.890;4.722;2023-08-12T03:17:49;13.7;;;3.7;;
6561;SDS011;3314;50.890;4.722;2023-08-12T03:19:49;12.5;;;3.1;;
6561;SDS011;3314;50.890;4.722;2023-08-12T03:21:49;11.5;;;3.5;;
6561;SDS011;3314;50.890;4.722;2023-08-12T03:23:48;10.5;;;3.7;;
6561;SDS011;3314;50.890;4.722;2023-08-12T03:25:48;16.3;;;4.4;;
6561;SDS011;3314;50.890;4.722;2023-08-12T03:27:48;12.4;;;4.0;;
6561;SDS011;3314;50.890;4.722;2023-08-12T03:29:48;13.3;;;3.5;;
6561;SDS011;3314;50.890;4.722;2023-08-12T03:31:48;11.8;;;3.8;;
6561;SDS011;3314;50.890;4.722;2023-08-12T03:33:48;10.9;;;3.3;;
6561;SDS011;3314;50.890;4.722;2023-08-12T03:35:48;9.4;;;3.8;;
6561;SDS011;3314;50.890;4.722;2023-08-12T03:37:47;15.4;;;3.8;;
6561;SDS011;3314;50.890;4.722;2023-08-12T03:39:47;9.0;;;3.7;;
6561;SDS011;3314;50.890;4.722;2023-08-12T03:41:47;9.5;;;3.6;;
6561;SDS011;3314;50.890;4.722;2023-08-12T03:43:47;9.3;;;3.0;;
6561;SDS011;3314;50.890;4.722;2023-08-12T03:45:47;14.2;;;3.5;;
6561;SDS011;3314;50.890;4.722;2023-08-12T03:47:47;12.5;;;3.9;;
6561;SDS011;3314;50.890;4.722;2023-08-12T03:49:47;11.2;;;3.9;;
6561;SDS011;3314;50.890;4.722;2023-08-12T03:51:47;11.7;;;3.7;;
6561;SDS011;3314;50.890;4.722;2023-08-12T03:53:46;12.2;;;3.8;;
6561;SDS011;3314;50.890;4.722;2023-08-12T03:55:46;10.3;;;3.8;;
6561;SDS011;3314;50.890;4.722;2023-08-12T03:57:46;16.0;;;4.1;;
6561;SDS011;3314;50.890;4.722;2023-08-12T03:59:46;11.0;;;4.3;;
6561;SDS011;3314;50.890;4.722;2023-08-12T04:01:46;14.7;;;3.9;;
6561;SDS011;3314;50.890;4.722;2023-08-12T04:03:46;16.8;;;4.6;;
6561;SDS011;3314;50.890;4.722;2023-08-12T04:05:47;11.9;;;4.0;;
6561;SDS011;3314;50.890;4.722;2023-08-12T04:07:47;11.8;;;4.4;;
6561;SDS011;3314;50.890;4.722;2023-08-12T04:09:47;14.3;;;3.7;;
6561;SDS011;3314;50.890;4.722;2023-08-12T04:11:46;8.9;;;3.1;;
6561;SDS011;3314;50.890;4.722;2023-08-12T04:13:46;14.4;;;3.8;;
6561;SDS011;3314;50.890;4.722;2023-08-12T04:15:48;10.3;;;3.6;;
6561;SDS011;3314;50.890;4.722;2023-08-12T04:17:48;11.2;;;3.8;;
6561;SDS011;3314;50.890;4.722;2023-08-12T04:19:47;12.5;;;3.5;;
6561;SDS011;3314;50.890;4.722;2023-08-12T04:21:47;10.9;;;4.2;;
6561;SDS011;3314;50.890;4.722;2023-08-12T04:23:47;10.7;;;3.7;;
6561;SDS011;3314;50.890;4.722;2023-08-12T04:25:47;10.8;;;4.4;;
6561;SDS011;3314;50.890;4.722;2023-08-12T04:27:47;10.4;;;4.7;;
6561;SDS011;3314;50.890;4.722;2023-08-12T04:29:47;12.5;;;4.2;;
6561;SDS011;3314;50.890;4.722;2023-08-12T04:31:47;13.2;;;3.7;;
6561;SDS011;3314;50.890;4.722;2023-08-12T04:33:46;9.3;;;3.4;;
6561;SDS011;3314;50.890;4.722;2023-08-12T04:35:46;13.2;;;4.4;;
6561;SDS011;3314;50.890;4.722;2023-08-12T04:37:45;11.8;;;4.5;;
6561;SDS011;3314;50.890;4.722;2023-08-12T04:39:45;10.2;;;3.9;;
6561;SDS011;3314;50.890;4.722;2023-08-12T04:41:45;11.2;;;4.0;;
6561;SDS011;3314;50.890;4.722;2023-08-12T04:43:45;10.0;;;3.9;;
6561;SDS011;3314;50.890;4.722;2023-08-12T04:45:45;10.2;;;3.8;;
6561;SDS011;3314;50.890;4.722;2023-08-12T04:47:44;11.6;;;4.2;;
6561;SDS011;3314;50.890;4.722;2023-08-12T04:49:44;11.4;;;4.0;;
6561;SDS011;3314;50.890;4.722;2023-08-12T04:51:43;10.0;;;3.6;;
6561;SDS011;3314;50.890;4.722;2023-08-12T04:53:43;12.3;;;4.3;;
6561;SDS011;3314;50.890;4.722;2023-08-12T04:55:43;10.2;;;3.8;;
6561;SDS011;3314;50.890;4.722;2023-08-12T04:57:43;12.2;;;4.4;;
6561;SDS011;3314;50.890;4.722;2023-08-12T04:59:43;13.3;;;4.5;;
6561;SDS011;3314;50.890;4.722;2023-08-12T05:01:46;15.2;;;5.2;;
6561;SDS011;3314;50.890;4.722;2023-08-12T05:03:46;11.2;;;4.0;;
6561;SDS011;3314;50.890;4.722;2023-08-12T05:05:48;10.7;;;4.2;;
6561;SDS011;3314;50.890;4.722;2023-08-12T05:07:49;13.7;;;4.4;;
6561;SDS011;3314;50.890;4.722;2023-08-12T05:09:48;12.5;;;4.2;;
6561;SDS011;3314;50.890;4.722;2023-08-12T05:11:48;13.0;;;4.9;;
6561;SDS011;3314;50.890;4.722;2023-08-12T05:13:47;10.9;;;4.0;;
6561;SDS011;3314;50.890;4.722;2023-08-12T05:15:48;13.9;;;4.9;;
6561;SDS011;3314;50.890;4.722;2023-08-12T05:17:47;10.7;;;5.1;;
6561;SDS011;3314;50.890;4.722;2023-08-12T05:19:47;12.8;;;5.3;;
6561;SDS011;3314;50.890;4.722;2023-08-12T05:21:46;10.4;;;4.6;;
6561;SDS011;3314;50.890;4.722;2023-08-12T05:23:46;10.9;;;4.5;;
6561;SDS011;3314;50.890;4.722;2023-08-12T05:25:46;10.6;;;3.9;;
6561;SDS011;3314;50.890;4.722;2023-08-12T05:27:46;10.5;;;4.0;;
6561;SDS011;3314;50.890;4.722;2023-08-12T05:29:45;10.0;;;4.1;;
6561;SDS011;3314;50.890;4.722;2023-08-12T05:31:45;9.0;;;3.5;;
6561;SDS011;3314;50.890;4.722;2023-08-12T05:33:45;9.2;;;3.0;;
6561;SDS011;3314;50.890;4.722;2023-08-12T05:35:47;12.2;;;3.2;;
6561;SDS011;3314;50.890;4.722;2023-08-12T05:37:46;7.6;;;2.9;;
6561;SDS011;3314;50.890;4.722;2023-08-12T05:39:46;8.0;;;2.9;;
6561;SDS011;3314;50.890;4.722;2023-08-12T05:41:46;10.6;;;3.1;;
6561;SDS011;3314;50.890;4.722;2023-08-12T05:43:46;9.6;;;2.9;;
6561;SDS011;3314;50.890;4.722;2023-08-12T05:45:47;7.9;;;2.6;;
6561;SDS011;3314;50.890;4.722;2023-08-12T05:47:47;8.6;;;2.8;;
6561;SDS011;3314;50.890;4.722;2023-08-12T05:49:46;7.4;;;2.4;;
6561;SDS011;3314;50.890;4.722;2023-08-12T05:51:46;6.9;;;2.5;;
6561;SDS011;3314;50.890;4.722;2023-08-12T05:53:45;10.0;;;2.7;;
6561;SDS011;3314;50.890;4.722;2023-08-12T05:55:50;7.4;;;2.3;;
6561;SDS011;3314;50.890;4.722;2023-08-12T05:57:39;8.0;;;2.1;;
6561;SDS011;3314;50.890;4.722;2023-08-12T05:59:39;10.4;;;2.2;;
6561;SDS011;3314;50.890;4.722;2023-08-12T06:01:39;8.9;;;2.0;;
6561;SDS011;3314;50.890;4.722;2023-08-12T06:03:39;7.3;;;1.9;;
6561;SDS011;3314;50.890;4.722;2023-08-12T06:05:39;6.2;;;1.7;;
6561;SDS011;3314;50.890;4.722;2023-08-12T06:07:39;6.5;;;1.8;;
6561;SDS011;3314;50.890;4.722;2023-08-12T06:09:39;7.4;;;2.1;;
6561;SDS011;3314;50.890;4.722;2023-08-12T06:11:39;6.2;;;1.6;;
6561;SDS011;3314;50.890;4.722;2023-08-12T06:13:39;6.2;;;1.7;;
6561;SDS011;3314;50.890;4.722;2023-08-12T06:15:39;6.8;;;1.6;;
6561;SDS011;3314;50.890;4.722;2023-08-12T06:17:38;6.2;;;1.1;;
6561;SDS011;3314;50.890;4.722;2023-08-12T06:19:38;7.0;;;1.7;;
6561;SDS011;3314;50.890;4.722;2023-08-12T06:21:38;7.0;;;1.9;;
6561;SDS011;3314;50.890;4.722;2023-08-12T06:23:38;5.8;;;1.5;;
6561;SDS011;3314;50.890;4.722;2023-08-12T06:25:38;10.2;;;1.7;;
6561;SDS011;3314;50.890;4.722;2023-08-12T06:27:38;5.7;;;1.4;;
6561;SDS011;3314;50.890;4.722;2023-08-12T06:29:38;5.4;;;1.4;;
6561;SDS011;3314;50.890;4.722;2023-08-12T06:31:38;6.3;;;1.5;;
6561;SDS011;3314;50.890;4.722;2023-08-12T06:33:37;6.0;;;1.3;;
6561;SDS011;3314;50.890;4.722;2023-08-12T06:35:38;6.3;;;1.5;;
6561;SDS011;3314;50.890;4.722;2023-08-12T06:37:37;6.9;;;1.3;;
6561;SDS011;3314;50.890;4.722;2023-08-12T06:39:37;7.3;;;1.2;;
6561;SDS011;3314;50.890;4.722;2023-08-12T06:41:37;5.7;;;1.2;;
6561;SDS011;3314;50.890;4.722;2023-08-12T06:43:37;5.4;;;1.1;;
6561;SDS011;3314;50.890;4.722;2023-08-12T06:45:37;5.7;;;1.0;;
6561;SDS011;3314;50.890;4.722;2023-08-12T06:47:36;5.9;;;1.2;;
6561;SDS011;3314;50.890;4.722;2023-08-12T06:49:36;5.4;;;1.2;;
6561;SDS011;3314;50.890;4.722;2023-08-12T06:51:36;6.2;;;1.0;;
6561;SDS011;3314;50.890;4.722;2023-08-12T06:53:36;5.9;;;0.8;;
6561;SDS011;3314;50.890;4.722;2023-08-12T06:55:36;6.1;;;0.9;;
6561;SDS011;3314;50.890;4.722;2023-08-12T06:57:36;4.9;;;0.7;;
6561;SDS011;3314;50.890;4.722;2023-08-12T06:59:36;5.8;;;1.0;;
6561;SDS011;3314;50.890;4.722;2023-08-12T07:01:36;6.8;;;0.9;;
6561;SDS011;3314;50.890;4.722;2023-08-12T07:03:36;4.7;;;0.6;;
6561;SDS011;3314;50.890;4.722;2023-08-12T07:05:36;6.2;;;0.6;;
6561;SDS011;3314;50.890;4.722;2023-08-12T07:07:35;6.3;;;0.6;;
6561;SDS011;3314;50.890;4.722;2023-08-12T07:09:35;4.9;;;0.6;;
6561;SDS011;3314;50.890;4.722;2023-08-12T07:11:35;4.8;;;0.6;;
6561;SDS011;3314;50.890;4.722;2023-08-12T07:13:35;5.3;;;0.7;;
6561;SDS011;3314;50.890;4.722;2023-08-12T07:15:35;4.7;;;0.5;;
6561;SDS011;3314;50.890;4.722;2023-08-12T07:17:35;5.2;;;0.7;;
6561;SDS011;3314;50.890;4.722;2023-08-12T07:19:35;6.5;;;0.7;;
6561;SDS011;3314;50.890;4.722;2023-08-12T07:21:34;4.8;;;0.6;;
6561;SDS011;3314;50.890;4.722;2023-08-12T07:23:34;4.7;;;0.6;;
6561;SDS011;3314;50.890;4.722;2023-08-12T07:25:34;5.2;;;0.6;;
6561;SDS011;3314;50.890;4.722;2023-08-12T07:27:34;5.5;;;0.6;;
6561;SDS011;3314;50.890;4.722;2023-08-12T07:29:34;4.7;;;0.5;;
6561;SDS011;3314;50.890;4.722;2023-08-12T07:31:34;5.1;;;0.7;;
6561;SDS011;3314;50.890;4.722;2023-08-12T07:33:34;5.0;;;0.7;;
6561;SDS011;3314;50.890;4.722;2023-08-12T07:35:34;6.7;;;0.7;;
6561;SDS011;3314;50.890;4.722;2023-08-12T07:37:34;4.8;;;0.6;;
6561;SDS011;3314;50.890;4.722;2023-08-12T07:39:33;5.1;;;0.7;;
6561;SDS011;3314;50.890;4.722;2023-08-12T07:41:33;5.1;;;0.8;;
6561;SDS011;3314;50.890;4.722;2023-08-12T07:43:33;4.6;;;0.6;;
6561;SDS011;3314;50.890;4.722;2023-08-12T07:45:33;6.5;;;0.7;;
6561;SDS011;3314;50.890;4.722;2023-08-12T07:47:33;5.0;;;0.5;;
6561;SDS011;3314;50.890;4.722;2023-08-12T07:49:33;4.7;;;0.6;;
6561;SDS011;3314;50.890;4.722;2023-08-12T07:51:33;6.2;;;0.8;;
6561;SDS011;3314;50.890;4.722;2023-08-12T07:53:33;6.1;;;0.8;;
6561;SDS011;3314;50.890;4.722;2023-08-12T07:55:34;5.8;;;0.6;;
6561;SDS011;3314;50.890;4.722;2023-08-12T07:57:34;6.0;;;0.9;;
6561;SDS011;3314;50.890;4.722;2023-08-12T07:59:33;4.9;;;0.7;;
6561;SDS011;3314;50.890;4.722;2023-08-12T08:01:33;5.3;;;0.6;;
6561;SDS011;3314;50.890;4.722;2023-08-12T08:03:32;4.8;;;0.6;;
6561;SDS011;3314;50.890;4.722;2023-08-12T08:05:32;4.6;;;0.5;;
6561;SDS011;3314;50.890;4.722;2023-08-12T08:07:32;4.6;;;0.5;;
6561;SDS011;3314;50.890;4.722;2023-08-12T08:09:34;5.3;;;0.8;;
6561;SDS011;3314;50.890;4.722;2023-08-12T08:11:34;5.5;;;1.2;;
6561;SDS011;3314;50.890;4.722;2023-08-12T08:13:34;7.4;;;1.7;;
6561;SDS011;3314;50.890;4.722;2023-08-12T08:15:33;7.2;;;2.0;;
6561;SDS011;3314;50.890;4.722;2023-08-12T08:17:33;6.9;;;1.9;;
6561;SDS011;3314;50.890;4.722;2023-08-12T08:19:33;9.7;;;1.9;;
6561;SDS011;3314;50.890;4.722;2023-08-12T08:21:33;6.6;;;1.9;;
6561;SDS011;3314;50.890;4.722;2023-08-12T08:23:32;6.5;;;2.1;;
6561;SDS011;3314;50.890;4.722;2023-08-12T08:25:32;6.6;;;1.8;;
6561;SDS011;3314;50.890;4.722;2023-08-12T08:27:32;6.4;;;1.7;;
6561;SDS011;3314;50.890;4.722;2023-08-12T08:29:32;6.6;;;1.6;;
6561;SDS011;3314;50.890;4.722;2023-08-12T08:31:31;6.0;;;1.6;;
6561;SDS011;3314;50.890;4.722;2023-08-12T08:33:31;6.3;;;2.0;;
6561;SDS011;3314;50.890;4.722;2023-08-12T08:35:31;6.3;;;1.9;;
6561;SDS011;3314;50.890;4.722;2023-08-12T08:37:30;5.9;;;1.4;;
6561;SDS011;3314;50.890;4.722;2023-08-12T08:39:30;6.2;;;1.4;;
6561;SDS011;3314;50.890;4.722;2023-08-12T08:41:30;6.6;;;1.7;;
6561;SDS011;3314;50.890;4.722;2023-08-12T08:43:30;6.8;;;1.7;;
6561;SDS011;3314;50.890;4.722;2023-08-12T08:45:32;6.5;;;1.6;;
6561;SDS011;3314;50.890;4.722;2023-08-12T08:47:31;6.8;;;1.7;;
6561;SDS011;3314;50.890;4.722;2023-08-12T08:49:31;7.0;;;2.0;;
6561;SDS011;3314;50.890;4.722;2023-08-12T08:51:32;6.0;;;1.5;;
6561;SDS011;3314;50.890;4.722;2023-08-12T08:53:33;6.6;;;1.4;;
6561;SDS011;3314;50.890;4.722;2023-08-12T08:55:33;7.0;;;1.9;;
6561;SDS011;3314;50.890;4.722;2023-08-12T08:57:33;6.2;;;1.4;;
6561;SDS011;3314;50.890;4.722;2023-08-12T08:59:32;7.4;;;2.2;;
6561;SDS011;3314;50.890;4.722;2023-08-12T09:01:32;8.8;;;2.3;;
6561;SDS011;3314;50.890;4.722;2023-08-12T09:03:33;7.0;;;2.0;;
6561;SDS011;3314;50.890;4.722;2023-08-12T09:05:34;6.6;;;1.8;;
6561;SDS011;3314;50.890;4.722;2023-08-12T09:07:34;7.8;;;2.1;;
6561;SDS011;3314;50.890;4.722;2023-08-12T09:09:35;7.3;;;2.0;;
6561;SDS011;3314;50.890;4.722;2023-08-12T09:11:35;6.8;;;1.7;;
6561;SDS011;3314;50.890;4.722;2023-08-12T09:13:35;6.7;;;2.0;;
6561;SDS011;3314;50.890;4.722;2023-08-12T09:15:34;7.9;;;1.9;;
6561;SDS011;3314;50.890;4.722;2023-08-12T09:17:34;7.7;;;2.3;;
6561;SDS011;3314;50.890;4.722;2023-08-12T09:19:33;7.8;;;2.2;;
6561;SDS011;3314;50.890;4.722;2023-08-12T09:21:33;6.6;;;1.9;;
6561;SDS011;3314;50.890;4.722;2023-08-12T09:23:34;7.7;;;2.3;;
6561;SDS011;3314;50.890;4.722;2023-08-12T09:25:35;10.2;;;2.9;;
6561;SDS011;3314;50.890;4.722;2023-08-12T09:27:36;7.6;;;1.8;;
6561;SDS011;3314;50.890;4.722;2023-08-12T09:29:36;6.8;;;2.0;;
6561;SDS011;3314;50.890;4.722;2023-08-12T09:31:35;6.5;;;2.1;;
6561;SDS011;3314;50.890;4.722;2023-08-12T09:33:38;6.5;;;1.9;;
6561;SDS011;3314;50.890;4.722;2023-08-12T09:35:31;6.5;;;2.0;;
6561;SDS011;3314;50.890;4.722;2023-08-12T09:37:31;7.0;;;2.0;;
6561;SDS011;3314;50.890;4.722;2023-08-12T09:39:31;7.6;;;1.9;;
6561;SDS011;3314;50.890;4.722;2023-08-12T09:41:31;8.9;;;2.4;;
6561;SDS011;3314;50.890;4.722;2023-08-12T09:43:30;7.6;;;2.3;;
6561;SDS011;3314;50.890;4.722;2023-08-12T09:45:31;7.8;;;2.3;;
6561;SDS011;3314;50.890;4.722;2023-08-12T09:47:30;8.1;;;2.4;;
6561;SDS011;3314;50.890;4.722;2023-08-12T09:49:33;8.9;;;2.9;;
6561;SDS011;3314;50.890;4.722;2023-08-12T09:51:34;7.9;;;2.2;;
6561;SDS011;3314;50.890;4.722;2023-08-12T09:53:33;8.9;;;2.9;;
6561;SDS011;3314;50.890;4.722;2023-08-12T09:55:33;9.8;;;2.5;;
6561;SDS011;3314;50.890;4.722;2023-08-12T09:57:34;9.9;;;2.6;;
6561;SDS011;3314;50.890;4.722;2023-08-12T09:59:35;7.8;;;2.5;;
6561;SDS011;3314;50.890;4.722;2023-08-12T10:01:26;7.8;;;2.4;;
6561;SDS011;3314;50.890;4.722;2023-08-12T10:03:26;8.8;;;2.7;;
6561;SDS011;3314;50.890;4.722;2023-08-12T10:05:27;7.1;;;2.0;;
6561;SDS011;3314;50.890;4.722;2023-08-12T10:07:27;8.5;;;2.2;;
6561;SDS011;3314;50.890;4.722;2023-08-12T10:09:27;8.0;;;2.5;;
6561;SDS011;3314;50.890;4.722;2023-08-12T10:11:26;9.7;;;2.1;;
6561;SDS011;3314;50.890;4.722;2023-08-12T10:13:26;9.1;;;2.5;;
6561;SDS011;3314;50.890;4.722;2023-08-12T10:15:26;7.2;;;2.5;;
6561;SDS011;3314;50.890;4.722;2023-08-12T10:17:25;7.8;;;2.2;;
6561;SDS011;3314;50.890;4.722;2023-08-12T10:19:26;7.1;;;2.3;;
6561;SDS011;3314;50.890;4.722;2023-08-12T10:21:26;6.9;;;2.1;;
6561;SDS011;3314;50.890;4.722;2023-08-12T10:23:25;9.4;;;2.0;;
6561;SDS011;3314;50.890;4.722;2023-08-12T10:25:25;6.8;;;2.1;;
6561;SDS011;3314;50.890;4.722;2023-08-12T10:27:30;8.5;;;2.3;;
6561;SDS011;3314;50.890;4.722;2023-08-12T10:29:31;9.0;;;2.1;;
6561;SDS011;3314;50.890;4.722;2023-08-12T10:31:31;9.9;;;2.6;;
6561;SDS011;3314;50.890;4.722;2023-08-12T10:33:30;10.0;;;1.9;;
6561;SDS011;3314;50.890;4.722;2023-08-12T10:35:23;8.1;;;1.7;;
6561;SDS011;3314;50.890;4.722;2023-08-12T10:37:24;9.9;;;1.8;;
6561;SDS011;3314;50.890;4.722;2023-08-12T10:39:24;8.2;;;1.9;;
6561;SDS011;3314;50.890;4.722;2023-08-12T10:41:25;8.1;;;1.9;;
6561;SDS011;3314;50.890;4.722;2023-08-12T10:43:24;10.2;;;2.0;;
6561;SDS011;3314;50.890;4.722;2023-08-12T10:45:25;7.6;;;1.5;;
6561;SDS011;3314;50.890;4.722;2023-08-12T10:47:27;6.6;;;1.5;;
6561;SDS011;3314;50.890;4.722;2023-08-12T10:49:27;7.9;;;1.7;;
6561;SDS011;3314;50.890;4.722;2023-08-12T10:51:56;10.2;;;1.6;;
6561;SDS011;3314;50.890;4.722;2023-08-12T10:53:32;6.8;;;1.1;;
6561;SDS011;3314;50.890;4.722;2023-08-12T10:55:22;8.7;;;1.5;;
6561;SDS011;3314;50.890;4.722;2023-08-12T10:57:52;8.1;;;1.5;;
6561;SDS011;3314;50.890;4.722;2023-08-12T10:59:51;6.5;;;1.4;;
6561;SDS011;3314;50.890;4.722;2023-08-12T11:01:26;8.4;;;1.3;;
6561;SDS011;3314;50.890;4.722;2023-08-12T11:03:31;6.1;;;1.4;;
6561;SDS011;3314;50.890;4.722;2023-08-12T11:05:21;9.3;;;1.6;;
6561;SDS011;3314;50.890;4.722;2023-08-12T11:07:22;7.5;;;1.1;;
6561;SDS011;3314;50.890;4.722;2023-08-12T11:09:21;10.1;;;1.8;;
6561;SDS011;3314;50.890;4.722;2023-08-12T11:11:22;8.4;;;1.0;;
6561;SDS011;3314;50.890;4.722;2023-08-12T11:13:22;8.4;;;1.3;;
6561;SDS011;3314;50.890;4.722;2023-08-12T11:15:29;6.9;;;1.0;;
6561;SDS011;3314;50.890;4.722;2023-08-12T11:17:29;5.8;;;1.1;;
6561;SDS011;3314;50.890;4.722;2023-08-12T11:19:29;7.6;;;1.3;;
6561;SDS011;3314;50.890;4.722;2023-08-12T11:21:29;6.1;;;0.9;;
6561;SDS011;3314;50.890;4.722;2023-08-12T11:23:28;10.7;;;1.4;;
6561;SDS011;3314;50.890;4.722;2023-08-12T11:25:28;6.4;;;1.2;;
6561;SDS011;3314;50.890;4.722;2023-08-12T11:27:28;8.6;;;1.6;;
6561;SDS011;3314;50.890;4.722;2023-08-12T11:29:22;6.4;;;1.1;;
6561;SDS011;3314;50.890;4.722;2023-08-12T11:31:22;8.6;;;1.4;;
6561;SDS011;3314;50.890;4.722;2023-08-12T11:33:23;8.6;;;1.4;;
6561;SDS011;3314;50.890;4.722;2023-08-12T11:35:23;8.1;;;1.3;;
6561;SDS011;3314;50.890;4.722;2023-08-12T11:37:23;7.1;;;1.6;;
6561;SDS011;3314;50.890;4.722;2023-08-12T11:39:23;5.6;;;1.0;;
6561;SDS011;3314;50.890;4.722;2023-08-12T11:41:23;9.9;;;1.2;;
6561;SDS011;3314;50.890;4.722;2023-08-12T11:43:23;8.8;;;1.3;;
6561;SDS011;3314;50.890;4.722;2023-08-12T11:45:23;10.4;;;1.5;;
6561;SDS011;3314;50.890;4.722;2023-08-12T11:47:23;10.7;;;1.6;;
6561;SDS011;3314;50.890;4.722;2023-08-12T11:49:23;7.8;;;1.5;;
6561;SDS011;3314;50.890;4.722;2023-08-12T11:51:22;10.8;;;1.3;;
6561;SDS011;3314;50.890;4.722;2023-08-12T11:53:22;8.5;;;1.2;;
6561;SDS011;3314;50.890;4.722;2023-08-12T11:55:22;10.4;;;1.5;;
6561;SDS011;3314;50.890;4.722;2023-08-12T11:57:22;9.6;;;1.2;;
6561;SDS011;3314;50.890;4.722;2023-08-12T11:59:21;9.1;;;1.4;;
6561;SDS011;3314;50.890;4.722;2023-08-12T12:01:21;8.0;;;1.4;;
6561;SDS011;3314;50.890;4.722;2023-08-12T12:03:21;6.6;;;1.3;;
6561;SDS011;3314;50.890;4.722;2023-08-12T12:05:22;6.8;;;1.3;;
6561;SDS011;3314;50.890;4.722;2023-08-12T12:07:23;9.7;;;1.6;;
6561;SDS011;3314;50.890;4.722;2023-08-12T12:09:26;7.2;;;1.2;;
6561;SDS011;3314;50.890;4.722;2023-08-12T12:11:18;8.6;;;1.5;;
6561;SDS011;3314;50.890;4.722;2023-08-12T12:13:18;7.3;;;1.1;;
6561;SDS011;3314;50.890;4.722;2023-08-12T12:15:17;7.2;;;1.3;;
6561;SDS011;3314;50.890;4.722;2023-08-12T12:17:17;9.7;;;1.4;;
6561;SDS011;3314;50.890;4.722;2023-08-12T12:19:18;6.3;;;1.1;;
6561;SDS011;3314;50.890;4.722;2023-08-12T12:21:20;8.3;;;1.4;;
6561;SDS011;3314;50.890;4.722;2023-08-12T12:23:19;9.4;;;1.2;;
6561;SDS011;3314;50.890;4.722;2023-08-12T12:25:20;7.2;;;1.2;;
6561;SDS011;3314;50.890;4.722;2023-08-12T12:27:21;6.9;;;1.0;;
6561;SDS011;3314;50.890;4.722;2023-08-12T12:29:20;8.7;;;1.1;;
6561;SDS011;3314;50.890;4.722;2023-08-12T12:31:20;7.2;;;1.1;;
6561;SDS011;3314;50.890;4.722;2023-08-12T12:33:19;11.7;;;1.4;;
6561;SDS011;3314;50.890;4.722;2023-08-12T12:35:19;11.9;;;1.7;;
6561;SDS011;3314;50.890;4.722;2023-08-12T12:37:18;7.9;;;1.1;;
6561;SDS011;3314;50.890;4.722;2023-08-12T12:39:18;11.2;;;1.7;;
6561;SDS011;3314;50.890;4.722;2023-08-12T12:41:18;7.6;;;1.1;;
6561;SDS011;3314;50.890;4.722;2023-08-12T12:43:17;8.0;;;1.3;;